Time;durP1;ratioP1;P1;durP2;ratioP2;P2;SDS_P1;SDS_P2;PMS_P1;PMS_P2;Temp;Humidity;BMP_temperature;BMP_pressure;BME280_temperature;BME280_humidity;BME280_pressure;Samples;Min_cycle;Max_cycle;Signal;HPM_P1;HPM_P2
2022/10/21 00:03:22;;;;;;;5.18;4.20;;;;;;;;;;10456976;28;20218;-70
2022/10/21 00:08:23;;;;;;;5.72;5.00;;;;;;;;;;10450841;28;20230;-70
2022/10/21 00:13:25;;;;;;;4.45;4.05;;;;;;;;;;10454337;28;20791;-70
2022/10/21 00:18:27;;;;;;;6.35;4.95;;;;;;;;;;10449663;28;20844;-69
2022/10/21 00:23:28;;;;;;;4.68;4.40;;;;;;;;;;10457982;28;20214;-69
2022/10/21 00:28:29;;;;;;;8.52;5.18;;;;;;;;;;10458030;28;20227;-69
2022/10/21 00:33:30;;;;;;;5.30;4.65;;;;;;;;;;10454657;28;20225;-70
2022/10/21 00:38:32;;;;;;;5.57;4.75;;;;;;;;;;10453011;28;20708;-70
2022/10/21 00:43:33;;;;;;;8.98;4.75;;;;;;;;;;10452756;28;20238;-70
2022/10/21 00:48:36;;;;;;;4.03;3.80;;;;;;;;;;10453540;28;20214;-69
2022/10/21 00:53:38;;;;;;;6.88;4.85;;;;;;;;;;10456179;28;20607;-70
2022/10/21 00:58:40;;;;;;;6.05;4.95;;;;;;;;;;10454398;28;20226;-70
2022/10/21 01:03:41;;;;;;;7.25;5.47;;;;;;;;;;10451838;28;20223;-70
2022/10/21 01:08:42;;;;;;;7.90;4.93;;;;;;;;;;10445681;28;20605;-69
2022/10/21 01:13:43;;;;;;;5.25;4.75;;;;;;;;;;10453706;28;20698;-70
2022/10/21 01:18:57;;;;;;;6.30;4.82;;;;;;;;;;10451896;28;20284;-70
2022/10/21 01:24:11;;;;;;;6.45;4.95;;;;;;;;;;10455822;28;20299;-70
2022/10/21 01:29:14;;;;;;;7.35;5.20;;;;;;;;;;10453004;28;20229;-71
2022/10/21 01:34:32;;;;;;;5.30;4.72;;;;;;;;;;10437374;28;21069;-70
2022/10/21 01:39:45;;;;;;;6.15;4.85;;;;;;;;;;10451848;28;20896;-70
2022/10/21 01:44:52;;;;;;;5.07;4.68;;;;;;;;;;10452040;28;20240;-70
2022/10/21 01:49:54;;;;;;;5.68;5.03;;;;;;;;;;10451829;28;20233;-70
2022/10/21 01:54:58;;;;;;;6.13;4.75;;;;;;;;;;10450155;28;20221;-70
2022/10/21 02:00:00;;;;;;;5.57;5.07;;;;;;;;;;10450546;28;20264;-69
2022/10/21 02:05:03;;;;;;;5.68;4.90;;;;;;;;;;10458170;28;20227;-68
2022/10/21 02:10:05;;;;;;;4.70;4.40;;;;;;;;;;10444430;28;20230;-69
2022/10/21 02:15:07;;;;;;;7.10;5.47;;;;;;;;;;10433196;28;20219;-69
2022/10/21 02:20:10;;;;;;;6.30;4.47;;;;;;;;;;10450848;28;20309;-68
2022/10/21 02:25:15;;;;;;;6.55;5.13;;;;;;;;;;10449299;28;20197;-69
2022/10/21 02:30:16;;;;;;;5.50;5.05;;;;;;;;;;10445394;28;20218;-68
2022/10/21 02:35:23;;;;;;;5.35;4.85;;;;;;;;;;10453864;28;20220;-69
2022/10/21 02:40:31;;;;;;;7.25;4.80;;;;;;;;;;10456657;28;20222;-69
2022/10/21 02:45:33;;;;;;;6.70;5.28;;;;;;;;;;10453877;28;20224;-68
2022/10/21 02:50:34;;;;;;;5.38;4.78;;;;;;;;;;10456238;28;20329;-69
2022/10/21 02:55:35;;;;;;;5.25;4.75;;;;;;;;;;10456571;28;20309;-69
2022/10/21 03:00:36;;;;;;;7.20;4.43;;;;;;;;;;10451002;28;20772;-69
2022/10/21 03:05:37;;;;;;;6.88;4.78;;;;;;;;;;10451562;28;20245;-69
2022/10/21 03:10:38;;;;;;;6.38;5.22;;;;;;;;;;10449897;28;20243;-69
2022/10/21 03:15:40;;;;;;;5.07;4.57;;;;;;;;;;10449486;28;20219;-69
2022/10/21 03:20:41;;;;;;;4.97;4.40;;;;;;;;;;10452816;28;20218;-69
2022/10/21 03:25:42;;;;;;;5.13;4.63;;;;;;;;;;10460888;28;20697;-68
2022/10/21 03:30:43;;;;;;;5.63;4.68;;;;;;;;;;10447950;28;20303;-70
2022/10/21 03:35:44;;;;;;;8.20;4.55;;;;;;;;;;10451001;28;20225;-69
2022/10/21 03:40:45;;;;;;;6.43;4.80;;;;;;;;;;10449330;28;20254;-69
2022/10/21 03:45:47;;;;;;;7.60;5.07;;;;;;;;;;10452076;28;21041;-69
2022/10/21 03:50:48;;;;;;;5.57;4.82;;;;;;;;;;10453983;28;20276;-70
2022/10/21 03:55:52;;;;;;;5.30;4.50;;;;;;;;;;10454950;28;20739;-70
2022/10/21 04:00:54;;;;;;;4.45;4.15;;;;;;;;;;10453614;28;20222;-69
2022/10/21 04:05:55;;;;;;;9.98;4.28;;;;;;;;;;10454397;28;20313;-70
2022/10/21 04:10:57;;;;;;;6.68;5.10;;;;;;;;;;10454507;28;20225;-69
2022/10/21 04:15:59;;;;;;;7.38;4.55;;;;;;;;;;10457171;28;20293;-70
2022/10/21 04:21:00;;;;;;;6.35;4.57;;;;;;;;;;10458161;28;20812;-70
2022/10/21 04:26:01;;;;;;;5.30;4.80;;;;;;;;;;10462122;28;20245;-70
2022/10/21 04:31:02;;;;;;;5.07;4.68;;;;;;;;;;10457644;28;20284;-70
2022/10/21 04:36:03;;;;;;;5.18;4.78;;;;;;;;;;10438995;28;20215;-70
2022/10/21 04:41:05;;;;;;;5.47;4.97;;;;;;;;;;10455762;28;20236;-70
2022/10/21 04:46:10;;;;;;;6.22;4.55;;;;;;;;;;10453861;28;20226;-70
2022/10/21 04:51:11;;;;;;;4.10;3.78;;;;;;;;;;10451862;28;20234;-70
2022/10/21 04:56:12;;;;;;;5.63;4.95;;;;;;;;;;10450491;28;20248;-69
2022/10/21 05:01:14;;;;;;;7.35;3.80;;;;;;;;;;10451693;28;20321;-70
2022/10/21 05:06:15;;;;;;;6.47;4.28;;;;;;;;;;10458187;28;21057;-69
2022/10/21 05:11:16;;;;;;;6.70;4.63;;;;;;;;;;10452030;28;21052;-70
2022/10/21 05:16:17;;;;;;;5.38;4.50;;;;;;;;;;10454303;28;20222;-70
2022/10/21 05:21:18;;;;;;;5.63;4.85;;;;;;;;;;10453286;28;20292;-69
2022/10/21 05:26:19;;;;;;;5.20;4.72;;;;;;;;;;10448177;28;20637;-70
2022/10/21 05:31:20;;;;;;;5.32;4.82;;;;;;;;;;10452002;28;20226;-70
2022/10/21 05:36:22;;;;;;;5.00;4.55;;;;;;;;;;10448682;28;20244;-70
2022/10/21 05:41:23;;;;;;;5.30;4.65;;;;;;;;;;10452843;28;20621;-70
2022/10/21 05:46:24;;;;;;;5.70;4.18;;;;;;;;;;10450870;28;20375;-69
2022/10/21 05:51:25;;;;;;;6.13;4.15;;;;;;;;;;10448400;28;20234;-69
2022/10/21 05:56:26;;;;;;;4.10;3.70;;;;;;;;;;10453035;28;20305;-69
2022/10/21 06:01:27;;;;;;;5.35;4.85;;;;;;;;;;10448333;28;20257;-69
2022/10/21 06:06:28;;;;;;;5.70;5.10;;;;;;;;;;10454772;28;20222;-68
2022/10/21 06:11:30;;;;;;;6.55;4.65;;;;;;;;;;10438090;28;20855;-69
2022/10/21 06:16:34;;;;;;;5.20;4.65;;;;;;;;;;10456891;28;20218;-68
2022/10/21 06:21:35;;;;;;;4.15;3.85;;;;;;;;;;10458654;28;20234;-69
2022/10/21 06:26:36;;;;;;;7.22;4.47;;;;;;;;;;10459303;28;21116;-69
2022/10/21 06:31:37;;;;;;;5.18;4.38;;;;;;;;;;10454592;28;20252;-70
2022/10/21 06:36:38;;;;;;;8.07;4.40;;;;;;;;;;10461479;28;20224;-70
2022/10/21 06:41:39;;;;;;;4.70;4.35;;;;;;;;;;10459364;28;20227;-70
2022/10/21 06:46:41;;;;;;;8.20;4.65;;;;;;;;;;10454872;28;20258;-70
2022/10/21 06:51:42;;;;;;;6.90;4.70;;;;;;;;;;10453293;28;20230;-68
2022/10/21 06:56:43;;;;;;;9.20;5.50;;;;;;;;;;10459874;28;20328;-68
2022/10/21 07:01:44;;;;;;;7.00;5.90;;;;;;;;;;10457515;28;20221;-68
2022/10/21 07:06:45;;;;;;;6.43;5.10;;;;;;;;;;10458613;28;20952;-68
2022/10/21 07:11:46;;;;;;;6.72;4.75;;;;;;;;;;10459109;28;20226;-69
2022/10/21 07:16:48;;;;;;;5.15;4.60;;;;;;;;;;10458997;28;20284;-68
2022/10/21 07:21:49;;;;;;;7.80;5.82;;;;;;;;;;10458884;28;20245;-68
2022/10/21 07:26:50;;;;;;;8.18;5.10;;;;;;;;;;10460955;28;20985;-69
2022/10/21 07:31:52;;;;;;;7.15;6.20;;;;;;;;;;10453597;28;20225;-69
2022/10/21 07:36:53;;;;;;;6.25;5.65;;;;;;;;;;10457418;28;20225;-69
2022/10/21 07:41:55;;;;;;;7.13;5.72;;;;;;;;;;10459044;28;20215;-69
2022/10/21 07:46:57;;;;;;;13.77;5.45;;;;;;;;;;10459083;28;20233;-69
2022/10/21 07:51:58;;;;;;;11.07;5.03;;;;;;;;;;10455732;28;20244;-69
2022/10/21 07:56:59;;;;;;;8.40;5.63;;;;;;;;;;10453230;28;20325;-69
2022/10/21 08:02:00;;;;;;;5.63;4.68;;;;;;;;;;10450875;28;20218;-69
2022/10/21 08:07:01;;;;;;;9.63;6.05;;;;;;;;;;10452015;28;20221;-69
2022/10/21 08:12:02;;;;;;;5.53;5.03;;;;;;;;;;10452961;28;20769;-69
2022/10/21 08:17:03;;;;;;;6.60;5.70;;;;;;;;;;10450075;28;20214;-69
2022/10/21 08:22:05;;;;;;;6.55;4.85;;;;;;;;;;10453084;28;20222;-68
2022/10/21 08:27:06;;;;;;;6.63;4.78;;;;;;;;;;10453291;28;20213;-68
2022/10/21 08:32:07;;;;;;;6.70;4.55;;;;;;;;;;10451495;28;20227;-68
2022/10/21 08:37:08;;;;;;;5.30;4.80;;;;;;;;;;10456298;28;20288;-69
2022/10/21 08:42:14;;;;;;;5.22;4.75;;;;;;;;;;10458027;28;20297;-69
2022/10/21 08:47:18;;;;;;;3.97;3.75;;;;;;;;;;10454301;28;20255;-69
2022/10/21 08:52:21;;;;;;;9.55;8.55;;;;;;;;;;10454297;28;20706;-68
2022/10/21 08:57:23;;;;;;;11.70;10.50;;;;;;;;;;10452224;28;20221;-68
2022/10/21 09:02:29;;;;;;;7.88;6.65;;;;;;;;;;10464255;28;20620;-67
2022/10/21 09:07:36;;;;;;;6.97;6.30;;;;;;;;;;10432291;28;20222;-68
2022/10/21 09:12:51;;;;;;;6.22;4.03;;;;;;;;;;10453936;28;20225;-69
2022/10/21 09:18:21;;;;;;;7.32;5.05;;;;;;;;;;10450561;28;20313;-69
2022/10/21 09:23:37;;;;;;;6.15;5.40;;;;;;;;;;10434291;28;20678;-69
2022/10/21 09:28:38;;;;;;;5.57;4.72;;;;;;;;;;10454442;28;20205;-69
2022/10/21 09:33:40;;;;;;;7.22;4.05;;;;;;;;;;10448852;28;20241;-69
2022/10/21 09:38:59;;;;;;;3.92;3.63;;;;;;;;;;10453241;28;20287;-68
2022/10/21 09:44:00;;;;;;;4.70;3.67;;;;;;;;;;10460417;28;21224;-69
2022/10/21 09:49:02;;;;;;;3.72;3.33;;;;;;;;;;10455454;28;20232;-69
2022/10/21 09:54:09;;;;;;;4.80;4.10;;;;;;;;;;10457643;28;20279;-68
2022/10/21 09:59:12;;;;;;;3.53;3.28;;;;;;;;;;10458451;28;20821;-69
2022/10/21 10:04:33;;;;;;;3.60;3.30;;;;;;;;;;10458841;28;20214;-69
2022/10/21 10:09:37;;;;;;;6.80;4.38;;;;;;;;;;10455788;28;20213;-69
2022/10/21 10:14:39;;;;;;;5.93;3.90;;;;;;;;;;10458378;28;20233;-69
2022/10/21 10:19:41;;;;;;;5.03;4.47;;;;;;;;;;10454726;28;20230;-69
2022/10/21 10:24:43;;;;;;;4.03;3.67;;;;;;;;;;10460078;28;20225;-69
2022/10/21 10:29:49;;;;;;;3.67;3.47;;;;;;;;;;10459243;28;20321;-69
2022/10/21 10:34:56;;;;;;;6.82;5.20;;;;;;;;;;10458368;28;20257;-69
2022/10/21 10:39:58;;;;;;;5.40;4.40;;;;;;;;;;10456639;28;20272;-67
2022/10/21 10:45:05;;;;;;;7.13;3.75;;;;;;;;;;10430252;28;20786;-69
2022/10/21 10:50:26;;;;;;;4.28;3.55;;;;;;;;;;10403385;28;20216;-69
2022/10/21 10:55:27;;;;;;;7.43;3.00;;;;;;;;;;10386076;28;20233;-69
2022/10/21 11:00:30;;;;;;;8.52;5.13;;;;;;;;;;10419974;28;20749;-69
2022/10/21 11:05:37;;;;;;;4.80;4.40;;;;;;;;;;10410700;28;20242;-70
2022/10/21 11:10:41;;;;;;;9.32;4.05;;;;;;;;;;10412105;28;20227;-69
2022/10/21 11:15:42;;;;;;;9.98;3.63;;;;;;;;;;10401576;28;20214;-69
2022/10/21 11:20:57;;;;;;;4.45;4.07;;;;;;;;;;10415214;28;20309;-70
2022/10/21 11:26:03;;;;;;;3.90;3.65;;;;;;;;;;10398986;28;20227;-69
2022/10/21 11:31:07;;;;;;;3.55;3.28;;;;;;;;;;10420619;28;20238;-70
2022/10/21 11:36:17;;;;;;;3.78;3.38;;;;;;;;;;10417810;28;20235;-69
2022/10/21 11:41:18;;;;;;;5.95;3.75;;;;;;;;;;10419165;28;20223;-70
2022/10/21 11:46:37;;;;;;;4.30;4.00;;;;;;;;;;10393557;28;20719;-70
2022/10/21 11:51:51;;;;;;;5.35;3.80;;;;;;;;;;10414903;28;20227;-70
2022/10/21 11:56:55;;;;;;;3.80;3.50;;;;;;;;;;10390498;28;20226;-69
2022/10/21 12:01:56;;;;;;;3.72;3.33;;;;;;;;;;10408470;28;20210;-69
2022/10/21 12:07:06;;;;;;;4.13;3.60;;;;;;;;;;10415314;28;20211;-70
2022/10/21 12:12:12;;;;;;;4.22;3.92;;;;;;;;;;10406133;28;20231;-69
2022/10/21 12:17:17;;;;;;;4.00;3.83;;;;;;;;;;10411601;28;20601;-69
2022/10/21 12:22:18;;;;;;;5.53;4.05;;;;;;;;;;10407947;28;20219;-69
2022/10/21 12:27:24;;;;;;;4.03;3.65;;;;;;;;;;10415689;28;20214;-69
2022/10/21 12:32:31;;;;;;;3.97;3.70;;;;;;;;;;10408391;28;20241;-69
2022/10/21 12:37:43;;;;;;;4.82;3.88;;;;;;;;;;10405254;28;20226;-70
2022/10/21 12:42:45;;;;;;;6.57;4.25;;;;;;;;;;10413286;28;20229;-69
2022/10/21 12:47:46;;;;;;;5.40;4.82;;;;;;;;;;10452310;28;20217;-69
2022/10/21 12:53:02;;;;;;;4.88;4.20;;;;;;;;;;10450325;28;20231;-69
2022/10/21 12:58:04;;;;;;;6.13;4.70;;;;;;;;;;10449779;28;20689;-70
2022/10/21 13:03:12;;;;;;;7.35;5.03;;;;;;;;;;10450442;28;21220;-69
2022/10/21 13:08:21;;;;;;;5.32;4.32;;;;;;;;;;10447060;28;20593;-69
2022/10/21 13:13:28;;;;;;;5.25;4.47;;;;;;;;;;10443675;28;20628;-69
2022/10/21 13:18:48;;;;;;;4.80;4.40;;;;;;;;;;10437693;28;20205;-69
2022/10/21 13:23:51;;;;;;;4.40;4.10;;;;;;;;;;10443642;28;20222;-69
2022/10/21 13:28:57;;;;;;;3.72;3.35;;;;;;;;;;10441106;28;20579;-69
2022/10/21 13:33:58;;;;;;;4.60;4.28;;;;;;;;;;10440103;28;20230;-69
2022/10/21 13:39:01;;;;;;;4.82;4.43;;;;;;;;;;10448185;28;20215;-69
2022/10/21 13:44:06;;;;;;;8.93;4.70;;;;;;;;;;10445215;28;20714;-69
2022/10/21 13:49:26;;;;;;;5.93;4.68;;;;;;;;;;10449420;28;20213;-69
2022/10/21 13:54:33;;;;;;;6.28;4.95;;;;;;;;;;10445417;28;20218;-69
2022/10/21 13:59:34;;;;;;;8.38;4.90;;;;;;;;;;10445423;28;20222;-68
2022/10/21 14:04:39;;;;;;;9.80;4.70;;;;;;;;;;10442610;28;20241;-69
2022/10/21 14:09:42;;;;;;;4.13;3.92;;;;;;;;;;10445437;28;20213;-69
2022/10/21 14:14:43;;;;;;;4.32;3.92;;;;;;;;;;10445060;28;20230;-69
2022/10/21 14:19:50;;;;;;;5.45;4.95;;;;;;;;;;10451085;28;20370;-69
2022/10/21 14:24:55;;;;;;;4.70;4.22;;;;;;;;;;10448753;28;20229;-69
2022/10/21 14:29:57;;;;;;;4.70;4.25;;;;;;;;;;10452840;28;20724;-68
2022/10/21 14:35:20;;;;;;;8.45;7.65;;;;;;;;;;10454670;28;20246;-69
2022/10/21 14:40:25;;;;;;;4.57;4.18;;;;;;;;;;10455202;28;21350;-69
2022/10/21 14:45:28;;;;;;;6.25;4.95;;;;;;;;;;10455082;28;20219;-69
2022/10/21 14:50:29;;;;;;;4.35;4.00;;;;;;;;;;10458522;28;20277;-69
2022/10/21 14:55:30;;;;;;;6.80;5.45;;;;;;;;;;10452276;28;20214;-69
2022/10/21 15:00:33;;;;;;;5.95;5.47;;;;;;;;;;10457889;28;20230;-70
2022/10/21 15:05:46;;;;;;;6.40;5.90;;;;;;;;;;10451068;28;20690;-69
2022/10/21 15:11:13;;;;;;;8.32;5.88;;;;;;;;;;10454799;28;20221;-69
2022/10/21 15:16:25;;;;;;;13.05;8.65;;;;;;;;;;10453449;28;20219;-69
2022/10/21 15:21:30;;;;;;;8.23;7.43;;;;;;;;;;10455876;28;20249;-69
2022/10/21 15:26:36;;;;;;;20.67;15.98;;;;;;;;;;10450485;28;20218;-69
2022/10/21 15:31:37;;;;;;;7.78;7.03;;;;;;;;;;10457244;28;20249;-68
2022/10/21 15:36:38;;;;;;;13.63;5.05;;;;;;;;;;10457603;28;20221;-69
2022/10/21 15:41:39;;;;;;;7.88;4.47;;;;;;;;;;10452859;28;20241;-69
2022/10/21 15:46:44;;;;;;;5.40;4.72;;;;;;;;;;10458570;28;20225;-69
2022/10/21 15:51:47;;;;;;;7.35;5.13;;;;;;;;;;10458187;28;20246;-69
2022/10/21 15:56:49;;;;;;;11.07;5.32;;;;;;;;;;10455303;28;20890;-69
2022/10/21 16:01:51;;;;;;;10.20;7.07;;;;;;;;;;10456010;28;20222;-69
2022/10/21 16:06:52;;;;;;;7.10;5.72;;;;;;;;;;10455073;28;20282;-69
2022/10/21 16:11:55;;;;;;;7.47;6.28;;;;;;;;;;10458434;28;20257;-69
2022/10/21 16:16:57;;;;;;;5.82;5.32;;;;;;;;;;10455070;28;20213;-69
2022/10/21 16:21:58;;;;;;;8.63;6.38;;;;;;;;;;10457116;28;20215;-69
2022/10/21 16:26:59;;;;;;;6.95;6.25;;;;;;;;;;10460006;28;20253;-70
2022/10/21 16:32:00;;;;;;;11.85;6.57;;;;;;;;;;10461659;28;20318;-70
2022/10/21 16:37:01;;;;;;;9.90;6.57;;;;;;;;;;10454744;28;20218;-69
2022/10/21 16:42:02;;;;;;;7.10;5.55;;;;;;;;;;10454851;28;20249;-68
2022/10/21 16:47:05;;;;;;;7.50;5.88;;;;;;;;;;10453326;28;20241;-70
2022/10/21 16:52:06;;;;;;;5.78;5.28;;;;;;;;;;10445043;28;20241;-69
2022/10/21 16:57:07;;;;;;;10.18;6.05;;;;;;;;;;10449291;28;20238;-68
2022/10/21 17:02:14;;;;;;;19.05;10.18;;;;;;;;;;10449878;28;20215;-67
2022/10/21 17:07:15;;;;;;;12.48;8.68;;;;;;;;;;10447847;28;20230;-67
2022/10/21 17:12:16;;;;;;;8.00;6.22;;;;;;;;;;10449204;28;20267;-68
2022/10/21 17:17:19;;;;;;;6.82;6.15;;;;;;;;;;10449460;28;20221;-69
2022/10/21 17:22:20;;;;;;;7.63;5.20;;;;;;;;;;10449412;28;20219;-68
2022/10/21 17:27:22;;;;;;;6.93;5.75;;;;;;;;;;10448275;28;20210;-68
2022/10/21 17:32:23;;;;;;;10.93;5.95;;;;;;;;;;10450329;28;20218;-68
2022/10/21 17:37:24;;;;;;;5.97;4.90;;;;;;;;;;10452136;28;20229;-67
2022/10/21 17:42:25;;;;;;;5.38;4.88;;;;;;;;;;10452630;28;20233;-69
2022/10/21 17:47:27;;;;;;;6.68;6.05;;;;;;;;;;10451446;28;20243;-69
2022/10/21 17:52:28;;;;;;;6.60;5.95;;;;;;;;;;10444490;28;20847;-69
2022/10/21 17:57:31;;;;;;;5.78;5.28;;;;;;;;;;10449531;28;20214;-68
2022/10/21 18:02:34;;;;;;;5.28;4.72;;;;;;;;;;10451700;28;21017;-68
2022/10/21 18:07:35;;;;;;;4.55;4.10;;;;;;;;;;10454358;28;20210;-68
2022/10/21 18:12:36;;;;;;;9.50;5.28;;;;;;;;;;10453426;28;21603;-68
2022/10/21 18:17:38;;;;;;;4.15;3.85;;;;;;;;;;10455186;28;24432;-68
2022/10/21 18:22:39;;;;;;;4.78;4.38;;;;;;;;;;10452319;28;20215;-67
2022/10/21 18:27:40;;;;;;;4.57;4.18;;;;;;;;;;10459699;28;20310;-68
2022/10/21 18:32:41;;;;;;;4.55;4.15;;;;;;;;;;10445872;28;20214;-69
2022/10/21 18:37:43;;;;;;;5.15;3.80;;;;;;;;;;10460931;28;20210;-68
2022/10/21 18:42:44;;;;;;;4.45;4.05;;;;;;;;;;10461303;28;20230;-69
2022/10/21 18:47:46;;;;;;;4.15;3.63;;;;;;;;;;10457522;28;20215;-68
2022/10/21 18:52:47;;;;;;;4.40;3.70;;;;;;;;;;10457644;28;20230;-68
2022/10/21 18:57:48;;;;;;;4.53;4.10;;;;;;;;;;10458236;28;20298;-68
2022/10/21 19:02:49;;;;;;;6.30;4.47;;;;;;;;;;10456019;28;20779;-68
2022/10/21 19:07:51;;;;;;;4.63;4.32;;;;;;;;;;10457871;28;20225;-68
2022/10/21 19:12:52;;;;;;;4.18;3.78;;;;;;;;;;10455536;28;20214;-68
2022/10/21 19:17:53;;;;;;;4.13;3.80;;;;;;;;;;10457715;28;20219;-68
2022/10/21 19:22:54;;;;;;;3.92;3.72;;;;;;;;;;10455974;28;20315;-68
2022/10/21 19:27:55;;;;;;;4.05;3.85;;;;;;;;;;10456888;28;20297;-69
2022/10/21 19:32:59;;;;;;;3.17;3.08;;;;;;;;;;10437386;28;20226;-68
2022/10/21 19:38:00;;;;;;;4.07;3.28;;;;;;;;;;10452875;28;20875;-68
2022/10/21 19:43:01;;;;;;;3.28;3.08;;;;;;;;;;10455829;28;20261;-68
2022/10/21 19:48:02;;;;;;;2.90;2.75;;;;;;;;;;10455204;28;20217;-68
2022/10/21 19:53:03;;;;;;;4.18;3.80;;;;;;;;;;10451440;28;20777;-68
2022/10/21 19:58:05;;;;;;;5.40;3.67;;;;;;;;;;10450750;28;20226;-68
2022/10/21 20:03:06;;;;;;;3.03;2.90;;;;;;;;;;10445742;28;20228;-68
2022/10/21 20:08:07;;;;;;;3.00;2.80;;;;;;;;;;10449160;28;20705;-68
2022/10/21 20:13:09;;;;;;;2.70;2.60;;;;;;;;;;10448150;28;20229;-68
2022/10/21 20:18:10;;;;;;;4.13;3.38;;;;;;;;;;10445483;28;20252;-68
2022/10/21 20:23:11;;;;;;;2.60;2.50;;;;;;;;;;10446837;28;20241;-68
2022/10/21 20:28:12;;;;;;;2.95;2.75;;;;;;;;;;10431964;28;20250;-68
2022/10/21 20:33:13;;;;;;;2.63;2.53;;;;;;;;;;10444778;28;20317;-68
2022/10/21 20:38:14;;;;;;;2.08;2.05;;;;;;;;;;10448352;28;20213;-69
2022/10/21 20:43:15;;;;;;;3.20;3.08;;;;;;;;;;10445785;28;20870;-68
2022/10/21 20:48:16;;;;;;;3.65;3.35;;;;;;;;;;10447723;28;20215;-68
2022/10/21 20:53:17;;;;;;;2.65;2.55;;;;;;;;;;10447713;28;20349;-68
2022/10/21 20:58:18;;;;;;;2.70;1.92;;;;;;;;;;10446760;28;20211;-68
2022/10/21 21:03:19;;;;;;;2.53;2.20;;;;;;;;;;10451455;28;20250;-68
2022/10/21 21:08:21;;;;;;;2.17;2.08;;;;;;;;;;10445699;28;20296;-68
2022/10/21 21:13:22;;;;;;;2.53;2.40;;;;;;;;;;10451018;28;20228;-68
2022/10/21 21:18:23;;;;;;;2.22;2.15;;;;;;;;;;10445914;28;20714;-68
2022/10/21 21:23:24;;;;;;;2.08;1.98;;;;;;;;;;10445022;28;20313;-68
2022/10/21 21:28:25;;;;;;;1.88;1.77;;;;;;;;;;10446754;28;20218;-68
2022/10/21 21:33:26;;;;;;;2.30;2.30;;;;;;;;;;10450397;28;20229;-68
2022/10/21 21:38:28;;;;;;;2.20;2.20;;;;;;;;;;10468213;28;20245;-68
2022/10/21 21:43:30;;;;;;;2.63;2.42;;;;;;;;;;10458981;28;20738;-68
2022/10/21 21:48:32;;;;;;;2.60;2.40;;;;;;;;;;10463771;28;20231;-67
2022/10/21 21:53:33;;;;;;;2.25;2.13;;;;;;;;;;10468311;28;20229;-68
2022/10/21 21:58:34;;;;;;;2.22;2.10;;;;;;;;;;10464922;28;20218;-69
2022/10/21 22:03:35;;;;;;;1.80;1.80;;;;;;;;;;10459986;28;20249;-68
2022/10/21 22:08:38;;;;;;;2.03;2.03;;;;;;;;;;10457006;28;20240;-68
2022/10/21 22:13:40;;;;;;;2.85;2.58;;;;;;;;;;10456141;28;20921;-69
2022/10/21 22:18:41;;;;;;;3.05;2.95;;;;;;;;;;10460302;28;20691;-68
2022/10/21 22:23:42;;;;;;;3.13;2.80;;;;;;;;;;10464973;28;20317;-68
2022/10/21 22:28:43;;;;;;;2.35;2.17;;;;;;;;;;10464076;28;20222;-67
2022/10/21 22:33:44;;;;;;;3.10;2.90;;;;;;;;;;10462851;28;20249;-68
2022/10/21 22:38:45;;;;;;;2.72;2.60;;;;;;;;;;10459555;28;20206;-69
2022/10/21 22:43:46;;;;;;;2.60;2.40;;;;;;;;;;10460943;28;20636;-68
2022/10/21 22:48:48;;;;;;;2.10;2.05;;;;;;;;;;10457119;28;20214;-68
2022/10/21 22:53:49;;;;;;;1.92;1.83;;;;;;;;;;10454766;28;20311;-69
2022/10/21 22:58:50;;;;;;;2.35;2.25;;;;;;;;;;10451577;28;20207;-68
2022/10/21 23:03:51;;;;;;;2.28;2.15;;;;;;;;;;10431996;28;20652;-68
2022/10/21 23:08:52;;;;;;;2.28;2.08;;;;;;;;;;10451409;28;20209;-68
2022/10/21 23:13:53;;;;;;;2.35;2.28;;;;;;;;;;10448243;28;20648;-68
2022/10/21 23:18:54;;;;;;;2.83;2.63;;;;;;;;;;10448761;28;20217;-68
2022/10/21 23:23:55;;;;;;;2.42;2.33;;;;;;;;;;10451182;28;20218;-68
2022/10/21 23:28:56;;;;;;;2.30;2.10;;;;;;;;;;10452471;28;20213;-68
2022/10/21 23:33:58;;;;;;;2.42;2.22;;;;;;;;;;10447455;28;20218;-68
2022/10/21 23:38:59;;;;;;;2.33;2.22;;;;;;;;;;10451270;28;20757;-68
2022/10/21 23:44:00;;;;;;;2.13;2.00;;;;;;;;;;10450224;28;20230;-68
2022/10/21 23:49:01;;;;;;;1.85;1.75;;;;;;;;;;10451283;28;20253;-69
2022/10/21 23:54:02;;;;;;;2.33;2.22;;;;;;;;;;10448077;28;20508;-68
2022/10/21 23:59:05;;;;;;;2.08;1.98;;;;;;;;;;10449569;28;20325;-68
